Terminal Aerodrome Forecast
Issued by NWS

Home | Current Version | Previous Version | Text Only | Print | Product List | Glossary On
Versions: 1 2 3 4 5 6 7 8 9 10 11 12 13 14 15 16 17 18 19 20 21 22 23
000
FTUS46 KSEW 290523
TAFSEA
TAF
KSEA 290523Z 2906/3012 23005KT P6SM BKN040 OVC070
     FM291000 20006KT P6SM BKN015 OVC025
     FM291400 22007KT P6SM -SHRA SCT008 OVC015
     FM292100 26005KT P6SM VCSH SCT035 BKN050
     FM300000 33006KT P6SM SCT035 BKN050
     FM300300 VRB03KT P6SM BKN050=

USA.gov is the U.S. government's official web portal to all federal, state and local government web resources and services.